sensor_id;sensor_type;location;lat;lon;timestamp;P1;durP1;ratioP1;P2;durP2;ratioP2
5295;SDS011;2670;42.720;23.336;2022-08-21T00:00:20;19.73;;;10.47;;
5295;SDS011;2670;42.720;23.336;2022-08-21T00:02:49;17.93;;;9.70;;
5295;SDS011;2670;42.720;23.336;2022-08-21T00:05:18;17.63;;;11.70;;
5295;SDS011;2670;42.720;23.336;2022-08-21T00:07:45;16.10;;;10.40;;
5295;SDS011;2670;42.720;23.336;2022-08-21T00:10:12;18.27;;;11.10;;
5295;SDS011;2670;42.720;23.336;2022-08-21T00:12:40;18.83;;;10.90;;
5295;SDS011;2670;42.720;23.336;2022-08-21T00:15:08;20.50;;;10.53;;
5295;SDS011;2670;42.720;23.336;2022-08-21T00:17:37;17.40;;;11.60;;
5295;SDS011;2670;42.720;23.336;2022-08-21T00:20:04;19.90;;;12.50;;
5295;SDS011;2670;42.720;23.336;2022-08-21T00:22:33;17.50;;;11.93;;
5295;SDS011;2670;42.720;23.336;2022-08-21T00:25:00;18.90;;;11.43;;
5295;SDS011;2670;42.720;23.336;2022-08-21T00:27:27;20.03;;;12.93;;
5295;SDS011;2670;42.720;23.336;2022-08-21T00:29:54;24.93;;;13.03;;
5295;SDS011;2670;42.720;23.336;2022-08-21T00:32:21;19.37;;;13.23;;
5295;SDS011;2670;42.720;23.336;2022-08-21T00:34:50;26.97;;;13.73;;
5295;SDS011;2670;42.720;23.336;2022-08-21T00:37:17;23.43;;;14.17;;
5295;SDS011;2670;42.720;23.336;2022-08-21T00:39:44;26.27;;;13.40;;
5295;SDS011;2670;42.720;23.336;2022-08-21T00:42:12;25.03;;;13.40;;
5295;SDS011;2670;42.720;23.336;2022-08-21T00:44:40;28.70;;;12.60;;
5295;SDS011;2670;42.720;23.336;2022-08-21T00:47:07;20.03;;;12.70;;
5295;SDS011;2670;42.720;23.336;2022-08-21T00:49:34;23.80;;;12.20;;
5295;SDS011;2670;42.720;23.336;2022-08-21T00:52:03;20.20;;;12.93;;
5295;SDS011;2670;42.720;23.336;2022-08-21T00:54:33;24.60;;;11.40;;
5295;SDS011;2670;42.720;23.336;2022-08-21T00:57:02;19.23;;;12.47;;
5295;SDS011;2670;42.720;23.336;2022-08-21T00:59:34;20.97;;;12.43;;
5295;SDS011;2670;42.720;23.336;2022-08-21T01:02:05;20.57;;;11.73;;
5295;SDS011;2670;42.720;23.336;2022-08-21T01:04:33;29.13;;;11.87;;
5295;SDS011;2670;42.720;23.336;2022-08-21T01:07:00;25.00;;;12.50;;
5295;SDS011;2670;42.720;23.336;2022-08-21T01:09:29;21.43;;;11.83;;
5295;SDS011;2670;42.720;23.336;2022-08-21T01:11:55;20.90;;;12.53;;
5295;SDS011;2670;42.720;23.336;2022-08-21T01:14:24;26.10;;;14.03;;
5295;SDS011;2670;42.720;23.336;2022-08-21T01:16:51;22.87;;;12.87;;
5295;SDS011;2670;42.720;23.336;2022-08-21T01:19:19;23.63;;;13.33;;
5295;SDS011;2670;42.720;23.336;2022-08-21T01:21:48;26.33;;;15.50;;
5295;SDS011;2670;42.720;23.336;2022-08-21T01:24:15;27.60;;;15.10;;
5295;SDS011;2670;42.720;23.336;2022-08-21T01:26:42;31.00;;;16.00;;
5295;SDS011;2670;42.720;23.336;2022-08-21T01:29:11;28.63;;;16.33;;
5295;SDS011;2670;42.720;23.336;2022-08-21T01:31:42;34.70;;;16.13;;
5295;SDS011;2670;42.720;23.336;2022-08-21T01:34:09;29.40;;;15.83;;
5295;SDS011;2670;42.720;23.336;2022-08-21T01:36:36;24.30;;;13.90;;
5295;SDS011;2670;42.720;23.336;2022-08-21T01:39:05;26.97;;;14.90;;
5295;SDS011;2670;42.720;23.336;2022-08-21T01:41:32;28.50;;;12.47;;
5295;SDS011;2670;42.720;23.336;2022-08-21T01:43:59;21.70;;;12.80;;
5295;SDS011;2670;42.720;23.336;2022-08-21T01:46:25;27.20;;;13.13;;
5295;SDS011;2670;42.720;23.336;2022-08-21T01:48:52;21.03;;;13.10;;
5295;SDS011;2670;42.720;23.336;2022-08-21T01:51:19;22.07;;;11.87;;
5295;SDS011;2670;42.720;23.336;2022-08-21T01:53:46;24.13;;;14.20;;
5295;SDS011;2670;42.720;23.336;2022-08-21T01:56:14;27.93;;;14.57;;
5295;SDS011;2670;42.720;23.336;2022-08-21T01:58:43;25.60;;;14.50;;
5295;SDS011;2670;42.720;23.336;2022-08-21T02:01:12;19.43;;;10.77;;
5295;SDS011;2670;42.720;23.336;2022-08-21T02:03:39;18.37;;;10.10;;
5295;SDS011;2670;42.720;23.336;2022-08-21T02:06:11;23.93;;;12.47;;
5295;SDS011;2670;42.720;23.336;2022-08-21T02:08:42;17.67;;;10.67;;
5295;SDS011;2670;42.720;23.336;2022-08-21T02:11:09;12.77;;;8.77;;
5295;SDS011;2670;42.720;23.336;2022-08-21T02:13:37;13.37;;;7.77;;
5295;SDS011;2670;42.720;23.336;2022-08-21T02:16:04;11.20;;;7.13;;
5295;SDS011;2670;42.720;23.336;2022-08-21T02:18:31;21.23;;;7.43;;
5295;SDS011;2670;42.720;23.336;2022-08-21T02:20:58;9.70;;;7.10;;
5295;SDS011;2670;42.720;23.336;2022-08-21T02:23:25;10.60;;;6.87;;
5295;SDS011;2670;42.720;23.336;2022-08-21T02:25:51;11.00;;;7.00;;
5295;SDS011;2670;42.720;23.336;2022-08-21T02:28:18;12.53;;;7.20;;
5295;SDS011;2670;42.720;23.336;2022-08-21T02:30:46;11.57;;;7.50;;
5295;SDS011;2670;42.720;23.336;2022-08-21T02:33:14;10.90;;;7.20;;
5295;SDS011;2670;42.720;23.336;2022-08-21T02:35:42;11.77;;;7.17;;
5295;SDS011;2670;42.720;23.336;2022-08-21T02:38:10;11.07;;;7.17;;
5295;SDS011;2670;42.720;23.336;2022-08-21T02:40:39;10.87;;;7.17;;
5295;SDS011;2670;42.720;23.336;2022-08-21T02:43:08;10.83;;;7.10;;
5295;SDS011;2670;42.720;23.336;2022-08-21T02:45:35;15.83;;;7.80;;
5295;SDS011;2670;42.720;23.336;2022-08-21T02:48:05;9.83;;;6.70;;
5295;SDS011;2670;42.720;23.336;2022-08-21T02:50:36;11.23;;;7.30;;
5295;SDS011;2670;42.720;23.336;2022-08-21T02:53:05;10.20;;;7.40;;
5295;SDS011;2670;42.720;23.336;2022-08-21T02:55:33;10.57;;;7.87;;
5295;SDS011;2670;42.720;23.336;2022-08-21T02:58:01;13.10;;;8.80;;
5295;SDS011;2670;42.720;23.336;2022-08-21T03:00:30;15.23;;;7.40;;
5295;SDS011;2670;42.720;23.336;2022-08-21T03:02:58;9.63;;;7.23;;
5295;SDS011;2670;42.720;23.336;2022-08-21T03:05:28;12.77;;;7.50;;
5295;SDS011;2670;42.720;23.336;2022-08-21T03:07:57;11.83;;;9.03;;
5295;SDS011;2670;42.720;23.336;2022-08-21T03:10:24;18.10;;;8.07;;
5295;SDS011;2670;42.720;23.336;2022-08-21T03:12:51;10.20;;;7.70;;
5295;SDS011;2670;42.720;23.336;2022-08-21T03:15:20;14.77;;;8.60;;
5295;SDS011;2670;42.720;23.336;2022-08-21T03:17:48;17.73;;;10.33;;
5295;SDS011;2670;42.720;23.336;2022-08-21T03:20:17;17.27;;;9.80;;
5295;SDS011;2670;42.720;23.336;2022-08-21T03:22:49;15.73;;;9.33;;
5295;SDS011;2670;42.720;23.336;2022-08-21T03:25:16;17.67;;;9.87;;
5295;SDS011;2670;42.720;23.336;2022-08-21T03:27:43;16.83;;;10.57;;
5295;SDS011;2670;42.720;23.336;2022-08-21T03:30:11;17.63;;;10.73;;
5295;SDS011;2670;42.720;23.336;2022-08-21T03:32:38;19.07;;;11.73;;
5295;SDS011;2670;42.720;23.336;2022-08-21T03:35:06;21.00;;;12.03;;
5295;SDS011;2670;42.720;23.336;2022-08-21T03:37:34;17.67;;;10.50;;
5295;SDS011;2670;42.720;23.336;2022-08-21T03:40:02;18.60;;;11.90;;
5295;SDS011;2670;42.720;23.336;2022-08-21T03:42:29;20.77;;;12.33;;
5295;SDS011;2670;42.720;23.336;2022-08-21T03:44:56;21.20;;;12.90;;
5295;SDS011;2670;42.720;23.336;2022-08-21T03:47:23;17.90;;;11.80;;
5295;SDS011;2670;42.720;23.336;2022-08-21T03:49:50;22.33;;;13.30;;
5295;SDS011;2670;42.720;23.336;2022-08-21T03:52:17;26.87;;;14.07;;
5295;SDS011;2670;42.720;23.336;2022-08-21T03:54:44;22.60;;;13.90;;
5295;SDS011;2670;42.720;23.336;2022-08-21T03:57:12;25.90;;;14.33;;
5295;SDS011;2670;42.720;23.336;2022-08-21T03:59:39;32.80;;;14.37;;
5295;SDS011;2670;42.720;23.336;2022-08-21T04:02:07;21.47;;;13.70;;
5295;SDS011;2670;42.720;23.336;2022-08-21T04:04:35;29.13;;;16.80;;
5295;SDS011;2670;42.720;23.336;2022-08-21T04:07:02;28.50;;;16.60;;
5295;SDS011;2670;42.720;23.336;2022-08-21T04:09:30;27.83;;;15.40;;
5295;SDS011;2670;42.720;23.336;2022-08-21T04:11:57;26.07;;;15.23;;
5295;SDS011;2670;42.720;23.336;2022-08-21T04:14:26;25.00;;;14.63;;
5295;SDS011;2670;42.720;23.336;2022-08-21T04:16:53;23.40;;;14.53;;
5295;SDS011;2670;42.720;23.336;2022-08-21T04:19:19;27.10;;;13.83;;
5295;SDS011;2670;42.720;23.336;2022-08-21T04:21:46;24.40;;;14.07;;
5295;SDS011;2670;42.720;23.336;2022-08-21T04:24:14;22.10;;;13.10;;
5295;SDS011;2670;42.720;23.336;2022-08-21T04:26:41;24.40;;;13.90;;
5295;SDS011;2670;42.720;23.336;2022-08-21T04:29:08;26.17;;;14.20;;
5295;SDS011;2670;42.720;23.336;2022-08-21T04:31:36;24.53;;;14.27;;
5295;SDS011;2670;42.720;23.336;2022-08-21T04:34:03;23.03;;;13.40;;
5295;SDS011;2670;42.720;23.336;2022-08-21T04:36:30;24.40;;;14.13;;
5295;SDS011;2670;42.720;23.336;2022-08-21T04:38:57;22.40;;;14.00;;
5295;SDS011;2670;42.720;23.336;2022-08-21T04:41:24;26.70;;;14.60;;
5295;SDS011;2670;42.720;23.336;2022-08-21T04:43:51;22.07;;;13.47;;
5295;SDS011;2670;42.720;23.336;2022-08-21T04:46:20;24.23;;;13.03;;
5295;SDS011;2670;42.720;23.336;2022-08-21T04:48:48;22.73;;;13.27;;
5295;SDS011;2670;42.720;23.336;2022-08-21T04:51:16;21.53;;;12.27;;
5295;SDS011;2670;42.720;23.336;2022-08-21T04:53:46;25.07;;;12.23;;
5295;SDS011;2670;42.720;23.336;2022-08-21T04:56:19;26.37;;;12.60;;
5295;SDS011;2670;42.720;23.336;2022-08-21T04:58:50;21.87;;;12.30;;
5295;SDS011;2670;42.720;23.336;2022-08-21T05:01:19;19.67;;;10.87;;
5295;SDS011;2670;42.720;23.336;2022-08-21T05:03:51;18.10;;;10.93;;
5295;SDS011;2670;42.720;23.336;2022-08-21T05:06:21;16.83;;;10.47;;
5295;SDS011;2670;42.720;23.336;2022-08-21T05:08:49;20.93;;;11.27;;
5295;SDS011;2670;42.720;23.336;2022-08-21T05:11:19;20.20;;;11.73;;
5295;SDS011;2670;42.720;23.336;2022-08-21T05:13:47;23.40;;;13.70;;
5295;SDS011;2670;42.720;23.336;2022-08-21T05:16:14;21.07;;;13.67;;
5295;SDS011;2670;42.720;23.336;2022-08-21T05:18:41;23.17;;;13.40;;
5295;SDS011;2670;42.720;23.336;2022-08-21T05:21:09;24.17;;;13.37;;
5295;SDS011;2670;42.720;23.336;2022-08-21T05:23:36;19.17;;;11.47;;
5295;SDS011;2670;42.720;23.336;2022-08-21T05:26:02;20.53;;;12.30;;
5295;SDS011;2670;42.720;23.336;2022-08-21T05:28:30;25.40;;;14.10;;
5295;SDS011;2670;42.720;23.336;2022-08-21T05:30:57;26.10;;;13.37;;
5295;SDS011;2670;42.720;23.336;2022-08-21T05:33:24;19.80;;;12.03;;
5295;SDS011;2670;42.720;23.336;2022-08-21T05:35:51;17.57;;;11.13;;
5295;SDS011;2670;42.720;23.336;2022-08-21T05:38:22;16.80;;;10.50;;
5295;SDS011;2670;42.720;23.336;2022-08-21T05:40:49;18.80;;;10.93;;
5295;SDS011;2670;42.720;23.336;2022-08-21T05:43:15;14.23;;;10.10;;
5295;SDS011;2670;42.720;23.336;2022-08-21T05:45:42;14.50;;;10.20;;
5295;SDS011;2670;42.720;23.336;2022-08-21T05:48:10;15.27;;;10.23;;
5295;SDS011;2670;42.720;23.336;2022-08-21T05:50:38;16.80;;;10.20;;
5295;SDS011;2670;42.720;23.336;2022-08-21T05:53:05;18.83;;;10.50;;
5295;SDS011;2670;42.720;23.336;2022-08-21T05:55:34;17.60;;;10.47;;
5295;SDS011;2670;42.720;23.336;2022-08-21T05:58:02;16.80;;;11.60;;
5295;SDS011;2670;42.720;23.336;2022-08-21T06:00:30;20.13;;;11.50;;
5295;SDS011;2670;42.720;23.336;2022-08-21T06:02:57;19.57;;;10.93;;
5295;SDS011;2670;42.720;23.336;2022-08-21T06:05:24;18.70;;;10.87;;
5295;SDS011;2670;42.720;23.336;2022-08-21T06:07:51;18.50;;;11.07;;
5295;SDS011;2670;42.720;23.336;2022-08-21T06:10:18;20.93;;;11.47;;
5295;SDS011;2670;42.720;23.336;2022-08-21T06:12:46;17.63;;;12.07;;
5295;SDS011;2670;42.720;23.336;2022-08-21T06:15:18;30.47;;;11.23;;
5295;SDS011;2670;42.720;23.336;2022-08-21T06:17:45;22.90;;;11.73;;
5295;SDS011;2670;42.720;23.336;2022-08-21T06:20:12;17.93;;;11.50;;
5295;SDS011;2670;42.720;23.336;2022-08-21T06:22:39;21.00;;;11.70;;
5295;SDS011;2670;42.720;23.336;2022-08-21T06:25:06;17.47;;;11.20;;
5295;SDS011;2670;42.720;23.336;2022-08-21T06:27:34;21.40;;;10.80;;
5295;SDS011;2670;42.720;23.336;2022-08-21T06:30:02;23.73;;;11.50;;
5295;SDS011;2670;42.720;23.336;2022-08-21T06:32:29;17.50;;;10.63;;
5295;SDS011;2670;42.720;23.336;2022-08-21T06:34:56;26.97;;;11.40;;
5295;SDS011;2670;42.720;23.336;2022-08-21T06:37:23;28.97;;;12.80;;
5295;SDS011;2670;42.720;23.336;2022-08-21T06:39:50;22.03;;;11.70;;
5295;SDS011;2670;42.720;23.336;2022-08-21T06:42:17;21.37;;;12.43;;
5295;SDS011;2670;42.720;23.336;2022-08-21T06:44:44;19.87;;;11.97;;
5295;SDS011;2670;42.720;23.336;2022-08-21T06:47:12;23.90;;;16.40;;
5295;SDS011;2670;42.720;23.336;2022-08-21T06:49:38;24.00;;;15.17;;
5295;SDS011;2670;42.720;23.336;2022-08-21T06:52:08;26.50;;;16.43;;
5295;SDS011;2670;42.720;23.336;2022-08-21T06:54:35;24.07;;;15.47;;
5295;SDS011;2670;42.720;23.336;2022-08-21T06:57:02;30.73;;;16.67;;
5295;SDS011;2670;42.720;23.336;2022-08-21T06:59:29;25.20;;;17.37;;
5295;SDS011;2670;42.720;23.336;2022-08-21T07:01:56;24.83;;;17.07;;
5295;SDS011;2670;42.720;23.336;2022-08-21T07:04:25;25.53;;;16.50;;
5295;SDS011;2670;42.720;23.336;2022-08-21T07:06:51;25.03;;;17.07;;
5295;SDS011;2670;42.720;23.336;2022-08-21T07:09:18;29.40;;;16.90;;
5295;SDS011;2670;42.720;23.336;2022-08-21T07:11:45;23.70;;;17.63;;
5295;SDS011;2670;42.720;23.336;2022-08-21T07:14:16;19.37;;;13.70;;
5295;SDS011;2670;42.720;23.336;2022-08-21T07:16:42;21.70;;;11.70;;
5295;SDS011;2670;42.720;23.336;2022-08-21T07:19:09;16.53;;;9.70;;
5295;SDS011;2670;42.720;23.336;2022-08-21T07:21:37;23.43;;;12.20;;
5295;SDS011;2670;42.720;23.336;2022-08-21T07:24:04;22.37;;;14.57;;
5295;SDS011;2670;42.720;23.336;2022-08-21T07:26:31;24.43;;;14.50;;
5295;SDS011;2670;42.720;23.336;2022-08-21T07:28:57;20.53;;;15.43;;
5295;SDS011;2670;42.720;23.336;2022-08-21T07:31:24;21.87;;;15.37;;
5295;SDS011;2670;42.720;23.336;2022-08-21T07:33:51;29.63;;;17.20;;
5295;SDS011;2670;42.720;23.336;2022-08-21T07:36:18;21.93;;;16.47;;
5295;SDS011;2670;42.720;23.336;2022-08-21T07:38:46;28.93;;;20.47;;
5295;SDS011;2670;42.720;23.336;2022-08-21T07:41:14;25.60;;;18.80;;
5295;SDS011;2670;42.720;23.336;2022-08-21T07:43:43;24.90;;;16.70;;
5295;SDS011;2670;42.720;23.336;2022-08-21T07:46:10;25.53;;;16.03;;
5295;SDS011;2670;42.720;23.336;2022-08-21T07:48:38;17.60;;;12.07;;
5295;SDS011;2670;42.720;23.336;2022-08-21T07:51:05;19.00;;;15.97;;
5295;SDS011;2670;42.720;23.336;2022-08-21T07:53:34;19.00;;;15.77;;
5295;SDS011;2670;42.720;23.336;2022-08-21T07:56:03;27.73;;;16.40;;
5295;SDS011;2670;42.720;23.336;2022-08-21T07:58:31;22.13;;;14.10;;
5295;SDS011;2670;42.720;23.336;2022-08-21T08:00:58;15.70;;;11.53;;
5295;SDS011;2670;42.720;23.336;2022-08-21T08:03:25;25.83;;;13.07;;
5295;SDS011;2670;42.720;23.336;2022-08-21T08:05:52;18.90;;;13.90;;
5295;SDS011;2670;42.720;23.336;2022-08-21T08:08:18;23.53;;;15.63;;
5295;SDS011;2670;42.720;23.336;2022-08-21T08:10:45;24.77;;;17.00;;
5295;SDS011;2670;42.720;23.336;2022-08-21T08:13:15;17.00;;;14.77;;
5295;SDS011;2670;42.720;23.336;2022-08-21T08:15:42;19.40;;;14.77;;
5295;SDS011;2670;42.720;23.336;2022-08-21T08:18:09;25.87;;;15.57;;
5295;SDS011;2670;42.720;23.336;2022-08-21T08:20:36;21.07;;;15.43;;
5295;SDS011;2670;42.720;23.336;2022-08-21T08:23:03;19.67;;;14.47;;
5295;SDS011;2670;42.720;23.336;2022-08-21T08:25:30;31.70;;;13.70;;
5295;SDS011;2670;42.720;23.336;2022-08-21T08:27:57;29.00;;;14.23;;
5295;SDS011;2670;42.720;23.336;2022-08-21T08:30:25;15.80;;;12.83;;
5295;SDS011;2670;42.720;23.336;2022-08-21T08:32:52;20.03;;;13.30;;
5295;SDS011;2670;42.720;23.336;2022-08-21T08:35:18;16.17;;;12.03;;
5295;SDS011;2670;42.720;23.336;2022-08-21T08:37:45;16.40;;;12.57;;
5295;SDS011;2670;42.720;23.336;2022-08-21T08:40:12;16.90;;;12.07;;
5295;SDS011;2670;42.720;23.336;2022-08-21T08:42:44;18.70;;;11.83;;
5295;SDS011;2670;42.720;23.336;2022-08-21T08:45:16;17.93;;;12.13;;
5295;SDS011;2670;42.720;23.336;2022-08-21T08:47:45;16.43;;;10.63;;
5295;SDS011;2670;42.720;23.336;2022-08-21T08:50:17;15.53;;;10.20;;
5295;SDS011;2670;42.720;23.336;2022-08-21T08:52:47;15.00;;;9.53;;
5295;SDS011;2670;42.720;23.336;2022-08-21T08:55:20;15.90;;;9.33;;
5295;SDS011;2670;42.720;23.336;2022-08-21T08:57:49;18.23;;;9.77;;
5295;SDS011;2670;42.720;23.336;2022-08-21T09:00:18;14.97;;;9.53;;
5295;SDS011;2670;42.720;23.336;2022-08-21T09:02:49;14.97;;;9.00;;
5295;SDS011;2670;42.720;23.336;2022-08-21T09:05:21;15.60;;;8.67;;
5295;SDS011;2670;42.720;23.336;2022-08-21T09:07:53;14.10;;;8.00;;
5295;SDS011;2670;42.720;23.336;2022-08-21T09:10:37;15.43;;;8.40;;
5295;SDS011;2670;42.720;23.336;2022-08-21T09:13:12;13.83;;;8.17;;
5295;SDS011;2670;42.720;23.336;2022-08-21T09:15:50;18.63;;;7.60;;
5295;SDS011;2670;42.720;23.336;2022-08-21T09:18:26;16.30;;;7.33;;
5295;SDS011;2670;42.720;23.336;2022-08-21T09:21:05;10.77;;;8.00;;
5295;SDS011;2670;42.720;23.336;2022-08-21T09:23:42;13.30;;;7.83;;
5295;SDS011;2670;42.720;23.336;2022-08-21T09:26:17;13.30;;;8.57;;
5295;SDS011;2670;42.720;23.336;2022-08-21T09:28:45;9.63;;;7.40;;
5295;SDS011;2670;42.720;23.336;2022-08-21T09:31:21;9.73;;;6.60;;
5295;SDS011;2670;42.720;23.336;2022-08-21T09:33:56;16.13;;;7.90;;
5295;SDS011;2670;42.720;23.336;2022-08-21T09:36:25;15.07;;;6.67;;
5295;SDS011;2670;42.720;23.336;2022-08-21T09:39:02;12.87;;;7.83;;
5295;SDS011;2670;42.720;23.336;2022-08-21T09:41:31;17.97;;;7.50;;
5295;SDS011;2670;42.720;23.336;2022-08-21T09:44:00;14.73;;;8.30;;
5295;SDS011;2670;42.720;23.336;2022-08-21T09:46:27;16.10;;;8.03;;
5295;SDS011;2670;42.720;23.336;2022-08-21T09:48:57;9.90;;;7.03;;
5295;SDS011;2670;42.720;23.336;2022-08-21T09:51:26;11.70;;;7.47;;
5295;SDS011;2670;42.720;23.336;2022-08-21T09:53:56;14.03;;;7.00;;
5295;SDS011;2670;42.720;23.336;2022-08-21T09:56:38;7.17;;;5.67;;
5295;SDS011;2670;42.720;23.336;2022-08-21T09:59:25;8.73;;;6.40;;
5295;SDS011;2670;42.720;23.336;2022-08-21T10:01:56;9.03;;;6.03;;
5295;SDS011;2670;42.720;23.336;2022-08-21T10:04:29;8.03;;;6.33;;
5295;SDS011;2670;42.720;23.336;2022-08-21T10:07:05;9.10;;;5.60;;
5295;SDS011;2670;42.720;23.336;2022-08-21T10:09:33;6.60;;;5.77;;
5295;SDS011;2670;42.720;23.336;2022-08-21T10:12:09;12.30;;;7.03;;
5295;SDS011;2670;42.720;23.336;2022-08-21T10:14:44;14.90;;;5.93;;
5295;SDS011;2670;42.720;23.336;2022-08-21T10:17:20;7.60;;;5.40;;
5295;SDS011;2670;42.720;23.336;2022-08-21T10:19:56;9.27;;;6.40;;
5295;SDS011;2670;42.720;23.336;2022-08-21T10:22:32;9.13;;;6.30;;
5295;SDS011;2670;42.720;23.336;2022-08-21T10:25:10;10.10;;;6.37;;
5295;SDS011;2670;42.720;23.336;2022-08-21T10:27:47;7.57;;;5.73;;
5295;SDS011;2670;42.720;23.336;2022-08-21T10:30:29;8.57;;;5.40;;
5295;SDS011;2670;42.720;23.336;2022-08-21T10:33:12;7.77;;;5.40;;
5295;SDS011;2670;42.720;23.336;2022-08-21T10:35:48;8.90;;;5.70;;
5295;SDS011;2670;42.720;23.336;2022-08-21T10:41:21;9.77;;;5.70;;
5295;SDS011;2670;42.720;23.336;2022-08-21T10:43:57;9.73;;;5.00;;
5295;SDS011;2670;42.720;23.336;2022-08-21T10:46:37;9.30;;;6.23;;
5295;SDS011;2670;42.720;23.336;2022-08-21T10:49:13;7.80;;;5.87;;
5295;SDS011;2670;42.720;23.336;2022-08-21T10:51:49;9.27;;;6.00;;
5295;SDS011;2670;42.720;23.336;2022-08-21T10:54:31;15.03;;;6.10;;
5295;SDS011;2670;42.720;23.336;2022-08-21T10:57:07;10.30;;;5.70;;
5295;SDS011;2670;42.720;23.336;2022-08-21T10:59:41;14.80;;;5.60;;
5295;SDS011;2670;42.720;23.336;2022-08-21T11:02:14;9.40;;;5.60;;
5295;SDS011;2670;42.720;23.336;2022-08-21T11:04:48;9.80;;;5.37;;
5295;SDS011;2670;42.720;23.336;2022-08-21T11:07:25;8.23;;;5.50;;
5295;SDS011;2670;42.720;23.336;2022-08-21T11:09:57;8.03;;;5.63;;
5295;SDS011;2670;42.720;23.336;2022-08-21T11:12:30;8.20;;;5.90;;
5295;SDS011;2670;42.720;23.336;2022-08-21T11:15:05;6.47;;;5.10;;
5295;SDS011;2670;42.720;23.336;2022-08-21T11:17:42;9.73;;;5.40;;
5295;SDS011;2670;42.720;23.336;2022-08-21T11:20:12;10.63;;;5.13;;
5295;SDS011;2670;42.720;23.336;2022-08-21T11:22:45;7.60;;;5.30;;
5295;SDS011;2670;42.720;23.336;2022-08-21T11:25:17;10.30;;;5.23;;
5295;SDS011;2670;42.720;23.336;2022-08-21T11:27:50;6.37;;;4.57;;
5295;SDS011;2670;42.720;23.336;2022-08-21T11:30:20;6.80;;;5.10;;
5295;SDS011;2670;42.720;23.336;2022-08-21T11:32:58;10.93;;;5.30;;
5295;SDS011;2670;42.720;23.336;2022-08-21T11:35:41;6.70;;;5.00;;
5295;SDS011;2670;42.720;23.336;2022-08-21T11:38:22;8.80;;;4.10;;
5295;SDS011;2670;42.720;23.336;2022-08-21T11:40:59;7.50;;;5.10;;
5295;SDS011;2670;42.720;23.336;2022-08-21T11:43:38;6.47;;;5.10;;
5295;SDS011;2670;42.720;23.336;2022-08-21T11:46:13;14.10;;;4.93;;
5295;SDS011;2670;42.720;23.336;2022-08-21T11:48:52;7.57;;;5.20;;
5295;SDS011;2670;42.720;23.336;2022-08-21T11:51:30;7.27;;;5.00;;
5295;SDS011;2670;42.720;23.336;2022-08-21T11:54:04;6.23;;;5.13;;
5295;SDS011;2670;42.720;23.336;2022-08-21T11:56:35;9.50;;;4.53;;
5295;SDS011;2670;42.720;23.336;2022-08-21T11:59:08;8.97;;;4.80;;
5295;SDS011;2670;42.720;23.336;2022-08-21T12:01:40;5.70;;;4.90;;
5295;SDS011;2670;42.720;23.336;2022-08-21T12:04:16;6.63;;;5.13;;
5295;SDS011;2670;42.720;23.336;2022-08-21T12:06:48;10.60;;;5.50;;
5295;SDS011;2670;42.720;23.336;2022-08-21T12:09:29;7.60;;;5.10;;
5295;SDS011;2670;42.720;23.336;2022-08-21T12:12:00;9.50;;;5.00;;
5295;SDS011;2670;42.720;23.336;2022-08-21T12:14:35;6.13;;;5.00;;
5295;SDS011;2670;42.720;23.336;2022-08-21T12:17:04;9.50;;;5.93;;
5295;SDS011;2670;42.720;23.336;2022-08-21T12:19:33;11.00;;;6.40;;
5295;SDS011;2670;42.720;23.336;2022-08-21T12:22:07;7.67;;;5.30;;
5295;SDS011;2670;42.720;23.336;2022-08-21T12:24:37;9.77;;;6.00;;
5295;SDS011;2670;42.720;23.336;2022-08-21T12:27:14;8.03;;;5.50;;
5295;SDS011;2670;42.720;23.336;2022-08-21T12:29:51;6.97;;;5.30;;
5295;SDS011;2670;42.720;23.336;2022-08-21T12:32:23;13.73;;;6.47;;
5295;SDS011;2670;42.720;23.336;2022-08-21T12:34:52;9.07;;;6.30;;
5295;SDS011;2670;42.720;23.336;2022-08-21T12:40:11;8.70;;;5.83;;
5295;SDS011;2670;42.720;23.336;2022-08-21T12:42:45;10.10;;;5.77;;
5295;SDS011;2670;42.720;23.336;2022-08-21T12:45:17;7.17;;;5.37;;
5295;SDS011;2670;42.720;23.336;2022-08-21T12:47:48;9.27;;;5.40;;
5295;SDS011;2670;42.720;23.336;2022-08-21T12:50:21;8.17;;;5.90;;
5295;SDS011;2670;42.720;23.336;2022-08-21T12:52:57;12.80;;;5.67;;
5295;SDS011;2670;42.720;23.336;2022-08-21T12:55:29;7.10;;;5.77;;
5295;SDS011;2670;42.720;23.336;2022-08-21T12:57:58;9.70;;;5.00;;
5295;SDS011;2670;42.720;23.336;2022-08-21T13:00:26;6.80;;;5.80;;
5295;SDS011;2670;42.720;23.336;2022-08-21T13:02:54;8.03;;;5.73;;
5295;SDS011;2670;42.720;23.336;2022-08-21T13:05:25;7.00;;;5.63;;
5295;SDS011;2670;42.720;23.336;2022-08-21T13:07:55;6.80;;;5.50;;
5295;SDS011;2670;42.720;23.336;2022-08-21T13:10:23;11.90;;;5.63;;
5295;SDS011;2670;42.720;23.336;2022-08-21T13:12:55;10.73;;;6.13;;
5295;SDS011;2670;42.720;23.336;2022-08-21T13:15:25;10.00;;;5.47;;
5295;SDS011;2670;42.720;23.336;2022-08-21T13:17:55;6.77;;;5.20;;
5295;SDS011;2670;42.720;23.336;2022-08-21T13:20:28;12.87;;;7.03;;
5295;SDS011;2670;42.720;23.336;2022-08-21T13:22:56;8.40;;;5.77;;
5295;SDS011;2670;42.720;23.336;2022-08-21T13:25:25;5.63;;;4.87;;
5295;SDS011;2670;42.720;23.336;2022-08-21T13:27:59;12.10;;;5.70;;
5295;SDS011;2670;42.720;23.336;2022-08-21T13:30:27;12.40;;;5.30;;
5295;SDS011;2670;42.720;23.336;2022-08-21T13:32:57;13.00;;;5.73;;
5295;SDS011;2670;42.720;23.336;2022-08-21T13:35:28;6.10;;;5.13;;
5295;SDS011;2670;42.720;23.336;2022-08-21T13:37:58;9.17;;;5.33;;
5295;SDS011;2670;42.720;23.336;2022-08-21T13:40:27;12.73;;;5.73;;
5295;SDS011;2670;42.720;23.336;2022-08-21T13:42:57;8.70;;;5.20;;
5295;SDS011;2670;42.720;23.336;2022-08-21T13:45:29;12.87;;;4.73;;
5295;SDS011;2670;42.720;23.336;2022-08-21T13:47:57;7.83;;;5.23;;
5295;SDS011;2670;42.720;23.336;2022-08-21T13:50:26;8.33;;;5.10;;
5295;SDS011;2670;42.720;23.336;2022-08-21T13:52:55;10.10;;;5.27;;
5295;SDS011;2670;42.720;23.336;2022-08-21T13:55:23;6.90;;;5.23;;
5295;SDS011;2670;42.720;23.336;2022-08-21T13:57:59;6.93;;;4.70;;
5295;SDS011;2670;42.720;23.336;2022-08-21T14:00:28;9.27;;;5.30;;
5295;SDS011;2670;42.720;23.336;2022-08-21T14:02:59;9.60;;;5.43;;
5295;SDS011;2670;42.720;23.336;2022-08-21T14:05:31;8.10;;;5.50;;
5295;SDS011;2670;42.720;23.336;2022-08-21T14:08:01;9.03;;;5.80;;
5295;SDS011;2670;42.720;23.336;2022-08-21T14:10:31;12.70;;;5.67;;
5295;SDS011;2670;42.720;23.336;2022-08-21T14:13:03;6.97;;;5.00;;
5295;SDS011;2670;42.720;23.336;2022-08-21T14:15:32;7.30;;;4.90;;
5295;SDS011;2670;42.720;23.336;2022-08-21T14:18:07;5.80;;;4.90;;
5295;SDS011;2670;42.720;23.336;2022-08-21T14:20:39;9.23;;;5.03;;
5295;SDS011;2670;42.720;23.336;2022-08-21T14:23:06;7.63;;;4.63;;
5295;SDS011;2670;42.720;23.336;2022-08-21T14:25:37;7.37;;;4.90;;
5295;SDS011;2670;42.720;23.336;2022-08-21T14:28:10;7.33;;;5.27;;
5295;SDS011;2670;42.720;23.336;2022-08-21T14:30:46;12.77;;;5.87;;
5295;SDS011;2670;42.720;23.336;2022-08-21T14:33:16;14.13;;;6.70;;
5295;SDS011;2670;42.720;23.336;2022-08-21T14:35:49;8.37;;;5.83;;
5295;SDS011;2670;42.720;23.336;2022-08-21T14:38:16;13.93;;;5.60;;
5295;SDS011;2670;42.720;23.336;2022-08-21T14:40:46;12.07;;;5.97;;
5295;SDS011;2670;42.720;23.336;2022-08-21T14:43:16;5.90;;;5.30;;
5295;SDS011;2670;42.720;23.336;2022-08-21T14:45:43;6.30;;;5.67;;
5295;SDS011;2670;42.720;23.336;2022-08-21T14:48:09;8.40;;;5.50;;
5295;SDS011;2670;42.720;23.336;2022-08-21T14:50:36;17.20;;;6.33;;
5295;SDS011;2670;42.720;23.336;2022-08-21T14:53:04;9.20;;;5.20;;
5295;SDS011;2670;42.720;23.336;2022-08-21T14:55:31;8.73;;;5.80;;
5295;SDS011;2670;42.720;23.336;2022-08-21T14:58:21;10.87;;;6.30;;
5295;SDS011;2670;42.720;23.336;2022-08-21T15:00:48;7.57;;;5.40;;
5295;SDS011;2670;42.720;23.336;2022-08-21T15:03:15;8.77;;;6.13;;
5295;SDS011;2670;42.720;23.336;2022-08-21T15:05:42;11.50;;;5.70;;